createdAt,value
2018-04-24T00:02:24.516Z,11.72
2018-04-24T00:04:57.803Z,11.65
2018-04-24T00:07:31.373Z,11.60
2018-04-24T00:10:04.996Z,11.64
2018-04-24T00:12:38.347Z,11.61
2018-04-24T00:15:12.321Z,11.52
2018-04-24T00:17:45.666Z,11.53
2018-04-24T00:20:19.361Z,11.50
2018-04-24T00:22:52.781Z,11.48
2018-04-24T00:25:27.206Z,11.40
2018-04-24T00:28:00.644Z,11.34
2018-04-24T00:32:57.421Z,11.29
2018-04-24T00:35:30.909Z,11.29
2018-04-24T00:38:04.485Z,11.21
2018-04-24T00:40:39.791Z,11.31
2018-04-24T00:43:13.310Z,11.59
2018-04-24T00:45:46.675Z,11.87
2018-04-24T00:48:20.526Z,12.10
2018-04-24T00:50:57.459Z,12.28
2018-04-24T00:53:40.387Z,12.27
2018-04-24T00:56:13.909Z,12.16
2018-04-24T00:58:47.383Z,12.05
2018-04-24T01:01:20.824Z,11.99
2018-04-24T01:03:55.049Z,11.93
2018-04-24T01:06:28.718Z,11.84
2018-04-24T01:09:05.137Z,11.83
2018-04-24T01:11:42.969Z,11.70
2018-04-24T01:14:17.019Z,11.60
2018-04-24T01:16:50.570Z,11.61
2018-04-24T01:19:24.080Z,11.49
2018-04-24T01:21:57.561Z,11.41
2018-04-24T01:24:31.167Z,11.31
2018-04-24T01:27:04.597Z,11.32
2018-04-24T01:29:39.520Z,11.24
2018-04-24T01:32:12.964Z,11.27
2018-04-24T01:34:46.279Z,11.25
2018-04-24T01:37:20.253Z,11.14
2018-04-24T01:39:54.244Z,11.12
2018-04-24T01:42:29.050Z,11.14
2018-04-24T01:45:02.616Z,11.08
2018-04-24T01:47:35.994Z,11.10
2018-04-24T01:50:09.325Z,11.14
2018-04-24T01:52:43.138Z,11.29
2018-04-24T01:55:16.517Z,11.43
2018-04-24T01:57:49.760Z,11.59
2018-04-24T02:00:23.586Z,11.63
2018-04-24T02:02:56.976Z,11.61
2018-04-24T02:05:30.281Z,11.51
2018-04-24T02:08:03.798Z,11.37
2018-04-24T02:10:37.117Z,11.29
2018-04-24T02:13:10.440Z,11.38
2018-04-24T02:15:44.411Z,11.38
2018-04-24T02:18:18.004Z,11.40
2018-04-24T02:20:51.381Z,11.29
2018-04-24T02:23:25.005Z,11.14
2018-04-24T02:25:58.443Z,11.11
2018-04-24T02:28:31.768Z,11.02
2018-04-24T02:31:05.404Z,11.01
2018-04-24T02:33:39.129Z,10.98
2018-04-24T02:36:12.910Z,10.90
2018-04-24T02:38:46.365Z,10.92
2018-04-24T02:41:20.083Z,10.87
2018-04-24T02:43:53.794Z,10.98
2018-04-24T02:46:27.480Z,11.06
2018-04-24T02:49:00.857Z,10.94
2018-04-24T02:51:34.563Z,10.97
2018-04-24T02:54:08.218Z,10.96
2018-04-24T02:56:41.839Z,11.04
2018-04-24T02:59:15.983Z,11.02
2018-04-24T03:01:50.061Z,11.19
2018-04-24T03:04:23.442Z,11.22
2018-04-24T03:06:57.377Z,11.22
2018-04-24T03:09:31.216Z,11.32
2018-04-24T03:12:05.298Z,11.29
2018-04-24T03:14:38.624Z,11.26
2018-04-24T03:17:12.181Z,11.04
2018-04-24T03:19:45.623Z,10.81
2018-04-24T03:22:19.121Z,10.58
2018-04-24T03:24:52.659Z,10.56
2018-04-24T03:27:26.071Z,10.53
2018-04-24T03:30:00.609Z,10.49
2018-04-24T03:32:34.462Z,10.44
2018-04-24T03:35:07.856Z,10.46
2018-04-24T03:37:41.933Z,10.41
2018-04-24T03:40:15.684Z,10.38
2018-04-24T03:42:52.265Z,10.35
2018-04-24T03:45:28.648Z,10.34
2018-04-24T03:48:02.720Z,10.32
2018-04-24T03:50:36.446Z,10.38
2018-04-24T03:53:09.689Z,10.34
2018-04-24T03:55:43.320Z,10.28
2018-04-24T03:58:17.026Z,10.25
2018-04-24T04:00:50.757Z,10.35
2018-04-24T04:03:24.185Z,10.37
2018-04-24T04:05:58.077Z,10.35
2018-04-24T04:08:31.666Z,10.33
2018-04-24T04:11:05.549Z,10.34
2018-04-24T04:13:39.297Z,10.40
2018-04-24T04:16:12.977Z,10.45
2018-04-24T04:18:57.069Z,10.47
2018-04-24T04:21:41.512Z,10.31
2018-04-24T04:24:28.141Z,10.29
2018-04-24T04:27:02.526Z,10.39
2018-04-24T04:29:37.108Z,10.48
2018-04-24T04:32:12.480Z,10.51
2018-04-24T04:34:45.874Z,10.45
2018-04-24T04:37:20.257Z,10.45
2018-04-24T04:39:53.660Z,10.61
2018-04-24T04:42:27.236Z,10.78
2018-04-24T04:45:01.206Z,10.87
2018-04-24T04:47:34.667Z,11.07
2018-04-24T04:50:08.153Z,11.16
2018-04-24T04:52:43.455Z,11.24
2018-04-24T04:57:38.374Z,11.29
2018-04-24T05:00:15.090Z,11.34
2018-04-24T05:02:49.201Z,11.58
2018-04-24T05:05:25.372Z,11.63
2018-04-24T05:08:00.055Z,11.74
2018-04-24T05:10:33.619Z,11.79
2018-04-24T05:13:09.402Z,11.79
2018-04-24T05:15:42.874Z,11.96
2018-04-24T05:18:16.915Z,12.04
2018-04-24T05:20:51.339Z,12.18
2018-04-24T05:23:24.985Z,12.38
2018-04-24T05:25:58.575Z,12.56
2018-04-24T05:28:32.589Z,12.79
2018-04-24T05:31:09.015Z,13.00
2018-04-24T05:33:42.591Z,13.13
2018-04-24T05:36:16.384Z,13.30
2018-04-24T05:38:50.778Z,13.44
2018-04-24T05:41:24.813Z,13.44
2018-04-24T05:43:58.178Z,13.32
2018-04-24T05:46:32.056Z,13.43
2018-04-24T05:49:06.485Z,13.42
2018-04-24T05:51:41.166Z,13.41
2018-04-24T05:54:15.074Z,13.45
2018-04-24T05:56:49.099Z,13.57
2018-04-24T05:59:22.688Z,13.78
2018-04-24T06:01:56.607Z,13.85
2018-04-24T06:04:30.480Z,13.77
2018-04-24T06:07:04.992Z,13.99
2018-04-24T06:09:38.675Z,13.96
2018-04-24T06:12:12.443Z,13.92
2018-04-24T06:14:45.848Z,13.98
2018-04-24T06:17:19.443Z,14.41
2018-04-24T06:19:53.479Z,14.69
2018-04-24T06:22:26.903Z,14.73
2018-04-24T06:25:02.273Z,14.78
2018-04-24T06:27:36.277Z,14.94
2018-04-24T06:30:11.182Z,15.14
2018-04-24T06:32:44.645Z,15.15
2018-04-24T06:35:18.736Z,15.22
2018-04-24T06:37:52.100Z,15.31
2018-04-24T06:40:26.593Z,15.37
2018-04-24T06:43:02.995Z,15.48
2018-04-24T06:45:37.098Z,15.68
2018-04-24T06:48:11.617Z,15.87
2018-04-24T06:50:45.215Z,16.02
2018-04-24T06:53:18.818Z,16.20
2018-04-24T06:55:52.940Z,16.23
2018-04-24T06:58:26.455Z,16.39
2018-04-24T07:01:00.786Z,16.29
2018-04-24T07:03:34.282Z,16.30
2018-04-24T07:06:07.676Z,16.27
2018-04-24T07:08:42.510Z,16.34
2018-04-24T07:11:16.480Z,16.56
2018-04-24T07:13:50.129Z,16.72
2018-04-24T07:16:24.392Z,17.00
2018-04-24T07:18:59.070Z,17.27
2018-04-24T07:21:32.555Z,17.50
2018-04-24T07:24:06.201Z,17.80
2018-04-24T07:26:40.142Z,17.96
2018-04-24T07:29:14.187Z,17.65
2018-04-24T07:31:47.717Z,17.97
2018-04-24T07:34:23.450Z,17.95
2018-04-24T07:36:56.955Z,18.18
2018-04-24T07:39:30.830Z,18.04
2018-04-24T07:42:07.341Z,18.07
2018-04-24T07:44:41.192Z,18.11
2018-04-24T07:47:15.289Z,17.90
2018-04-24T07:49:49.341Z,18.00
2018-04-24T07:52:23.196Z,18.06
2018-04-24T07:54:56.798Z,17.95
2018-04-24T07:57:30.465Z,18.02
2018-04-24T08:00:04.572Z,18.21
2018-04-24T08:02:38.643Z,18.20
2018-04-24T08:05:12.825Z,18.28
2018-04-24T08:07:46.959Z,18.21
2018-04-24T08:10:22.322Z,18.23
2018-04-24T08:13:01.953Z,18.49
2018-04-24T08:15:37.434Z,18.52
2018-04-24T08:18:14.163Z,18.57
2018-04-24T08:20:49.996Z,18.70
2018-04-24T08:23:23.944Z,18.57
2018-04-24T08:25:57.493Z,18.39
2018-04-24T08:28:31.415Z,18.47
2018-04-24T08:31:04.848Z,18.30
2018-04-24T08:33:38.375Z,18.45
2018-04-24T08:36:12.354Z,18.43
2018-04-24T08:38:46.083Z,18.17
2018-04-24T08:41:20.571Z,18.19
2018-04-24T08:45:23.927Z,18.25
2018-04-24T08:47:57.463Z,18.42
2018-04-24T08:50:31.973Z,18.60
2018-04-24T08:53:05.518Z,18.83
2018-04-24T08:55:39.285Z,19.17
2018-04-24T08:58:13.536Z,19.36
2018-04-24T09:00:47.985Z,19.33
2018-04-24T09:03:21.851Z,19.49
2018-04-24T09:05:56.020Z,19.64
2018-04-24T09:08:29.850Z,19.53
2018-04-24T09:11:06.553Z,19.76
2018-04-24T09:13:40.863Z,19.43
2018-04-24T09:16:15.455Z,19.35
2018-04-24T09:18:49.469Z,19.31
2018-04-24T09:21:23.525Z,19.07
2018-04-24T09:23:58.468Z,19.07
2018-04-24T09:26:37.444Z,19.18
2018-04-24T09:29:11.575Z,19.24
2018-04-24T09:31:45.289Z,19.46
2018-04-24T09:34:20.289Z,19.45
2018-04-24T09:37:00.896Z,19.62
2018-04-24T09:39:38.047Z,19.40
2018-04-24T09:42:20.445Z,19.58
2018-04-24T09:44:54.114Z,19.61
2018-04-24T09:47:27.952Z,19.51
2018-04-24T09:50:03.338Z,19.47
2018-04-24T09:52:37.113Z,19.74
2018-04-24T09:55:14.804Z,19.87
2018-04-24T09:57:49.120Z,19.79
2018-04-24T10:00:27.528Z,19.79
2018-04-24T10:03:06.042Z,19.81
2018-04-24T10:05:40.375Z,19.87
2018-04-24T10:08:14.307Z,19.76
2018-04-24T10:10:50.137Z,19.85
2018-04-24T10:13:24.828Z,19.96
2018-04-24T10:16:00.123Z,20.04
2018-04-24T10:18:34.216Z,19.86
2018-04-24T10:21:08.093Z,20.06
2018-04-24T10:23:49.508Z,20.12
2018-04-24T10:26:23.390Z,20.37
2018-04-24T10:28:57.038Z,20.20
2018-04-24T10:31:31.180Z,20.87
2018-04-24T10:34:07.867Z,21.10
2018-04-24T10:36:41.371Z,21.56
2018-04-24T10:39:16.954Z,22.06
2018-04-24T10:41:51.141Z,21.99
2018-04-24T10:44:26.948Z,22.16
2018-04-24T10:49:34.271Z,21.97
2018-04-24T10:52:10.281Z,22.46
2018-04-24T10:54:46.105Z,22.44
2018-04-24T10:57:20.043Z,22.71
2018-04-24T10:59:54.314Z,22.20
2018-04-24T11:02:32.761Z,22.34
2018-04-24T11:05:09.950Z,22.33
2018-04-24T11:07:51.688Z,22.09
2018-04-24T11:10:30.639Z,22.16
2018-04-24T11:13:04.836Z,22.32
2018-04-24T11:15:40.505Z,22.05
2018-04-24T11:18:15.139Z,22.24
2018-04-24T11:20:51.780Z,22.32
2018-04-24T11:26:04.140Z,21.81
2018-04-24T11:28:37.951Z,22.04
2018-04-24T11:31:23.448Z,22.27
2018-04-24T11:33:58.662Z,21.92
2018-04-24T11:36:41.311Z,22.20
2018-04-24T11:39:22.058Z,21.52
2018-04-24T11:41:58.041Z,21.49
2018-04-24T11:44:38.106Z,21.65
2018-04-24T11:47:22.007Z,22.27
2018-04-24T11:49:57.739Z,22.44
2018-04-24T11:52:31.910Z,22.09
2018-04-24T11:55:12.421Z,22.57
2018-04-24T12:04:10.073Z,22.04
2018-04-24T12:06:44.097Z,22.05
2018-04-24T12:09:21.996Z,22.41
2018-04-24T12:11:59.371Z,22.65
2018-04-24T12:14:32.791Z,22.43
2018-04-24T12:17:06.547Z,22.30
2018-04-24T12:19:40.298Z,22.30
2018-04-24T12:22:14.198Z,22.43
2018-04-24T12:24:53.805Z,22.34
2018-04-24T12:27:29.998Z,22.36
2018-04-24T12:30:07.038Z,22.26
2018-04-24T12:32:41.429Z,22.79
2018-04-24T12:35:14.952Z,22.38
2018-04-24T12:37:48.570Z,22.48
2018-04-24T12:40:22.517Z,22.14
2018-04-24T12:42:59.093Z,22.36
2018-04-24T12:45:34.150Z,22.43
2018-04-24T12:48:12.463Z,22.35
2018-04-24T12:50:47.480Z,22.03
2018-04-24T12:53:23.147Z,22.41
2018-04-24T12:55:56.526Z,22.20
2018-04-24T12:58:31.304Z,22.28
2018-04-24T13:01:05.976Z,21.96
2018-04-24T13:03:39.644Z,21.97
2018-04-24T13:06:14.499Z,22.08
2018-04-24T13:08:48.054Z,22.03
2018-04-24T13:11:22.408Z,21.89
2018-04-24T13:13:58.008Z,21.92
2018-04-24T13:16:33.371Z,22.09
2018-04-24T13:19:07.742Z,21.94
2018-04-24T13:21:41.518Z,21.95
2018-04-24T13:24:15.257Z,22.07
2018-04-24T13:26:49.732Z,21.82
2018-04-24T13:29:34.388Z,21.82
2018-04-24T13:32:11.574Z,22.00
2018-04-24T13:34:45.852Z,22.15
2018-04-24T13:37:21.113Z,22.00
2018-04-24T13:40:10.392Z,22.00
2018-04-24T13:42:49.862Z,21.95
2018-04-24T13:45:24.062Z,22.06
2018-04-24T13:47:58.981Z,21.88
2018-04-24T13:50:33.496Z,21.86
2018-04-24T13:53:11.012Z,21.53
2018-04-24T13:55:50.122Z,21.99
2018-04-24T13:58:27.964Z,21.62
2018-04-24T14:01:03.624Z,21.80
2018-04-24T14:03:42.440Z,21.85
2018-04-24T14:06:17.100Z,21.97
2018-04-24T14:08:54.085Z,21.89
2018-04-24T14:11:28.715Z,22.21
2018-04-24T14:14:03.758Z,21.78
2018-04-24T14:16:41.162Z,21.66
2018-04-24T14:19:17.922Z,21.71
2018-04-24T14:21:54.148Z,22.01
2018-04-24T14:24:31.786Z,22.14
2018-04-24T14:27:06.313Z,22.05
2018-04-24T14:29:40.281Z,22.07
2018-04-24T14:32:14.548Z,22.10
2018-04-24T14:34:48.327Z,22.10
2018-04-24T14:37:21.922Z,21.85
2018-04-24T14:39:56.003Z,21.96
2018-04-24T14:42:29.613Z,21.84
2018-04-24T14:45:03.507Z,22.17
2018-04-24T14:47:39.905Z,22.33
2018-04-24T14:50:14.283Z,22.42
2018-04-24T14:52:48.529Z,22.58
2018-04-24T14:55:22.042Z,22.31
2018-04-24T14:57:57.626Z,22.11
2018-04-24T15:00:31.318Z,21.83
2018-04-24T15:03:05.462Z,22.24
2018-04-24T15:05:42.683Z,22.36
2018-04-24T15:08:21.591Z,22.06
2018-04-24T15:10:56.195Z,21.99
2018-04-24T15:13:31.456Z,21.87
2018-04-24T15:16:07.006Z,21.76
2018-04-24T15:18:42.836Z,21.83
2018-04-24T15:21:21.835Z,21.91
2018-04-24T15:24:03.970Z,21.74
2018-04-24T15:26:40.448Z,21.68
2018-04-24T15:29:15.941Z,21.66
2018-04-24T15:31:49.870Z,21.51
2018-04-24T15:35:53.420Z,21.61
2018-04-24T15:38:27.507Z,21.45
2018-04-24T15:41:06.259Z,21.50
2018-04-24T15:43:42.065Z,21.21
2018-04-24T15:46:21.253Z,21.28
2018-04-24T15:48:54.570Z,21.30
2018-04-24T15:51:30.236Z,21.09
2018-04-24T15:54:04.643Z,21.25
2018-04-24T15:56:37.917Z,21.41
2018-04-24T15:59:11.770Z,21.41
2018-04-24T16:01:46.783Z,21.28
2018-04-24T16:04:21.715Z,21.34
2018-04-24T16:10:39.395Z,21.29
2018-04-24T16:13:27.570Z,21.12
2018-04-24T16:16:01.782Z,20.91
2018-04-24T16:18:36.992Z,21.05
2018-04-24T16:21:11.735Z,20.99
2018-04-24T16:23:49.507Z,21.01
2018-04-24T16:26:23.952Z,20.91
2018-04-24T16:28:58.905Z,20.94
2018-04-24T16:31:32.494Z,21.09
2018-04-24T16:34:10.157Z,21.02
2018-04-24T16:36:43.907Z,21.06
2018-04-24T16:39:24.557Z,20.93
2018-04-24T16:42:07.569Z,20.99
2018-04-24T16:44:46.646Z,20.71
2018-04-24T16:47:25.593Z,20.68
2018-04-24T16:50:04.173Z,20.56
2018-04-24T16:52:46.952Z,20.60
2018-04-24T16:55:21.659Z,20.61
2018-04-24T16:57:56.124Z,20.58
2018-04-24T17:00:31.146Z,20.59
2018-04-24T17:03:06.889Z,20.41
2018-04-24T17:05:41.369Z,20.37
2018-04-24T17:08:19.537Z,20.38
2018-04-24T17:10:55.260Z,20.31
2018-04-24T17:13:29.942Z,20.29
2018-04-24T17:16:11.405Z,20.24
2018-04-24T17:18:47.603Z,20.02
2018-04-24T17:21:21.904Z,19.91
2018-04-24T17:23:57.791Z,19.78
2018-04-24T17:26:31.215Z,19.64
2018-04-24T17:29:05.063Z,19.61
2018-04-24T17:31:39.797Z,19.56
2018-04-24T17:34:18.225Z,19.34
2018-04-24T17:36:55.330Z,19.19
2018-04-24T17:39:30.773Z,19.13
2018-04-24T17:44:45.101Z,18.98
2018-04-24T17:47:20.401Z,18.82
2018-04-24T17:49:54.564Z,18.78
2018-04-24T17:52:28.270Z,18.70
2018-04-24T17:55:04.273Z,18.69
2018-04-24T17:57:41.089Z,18.59
2018-04-24T18:00:15.014Z,18.56
2018-04-24T18:02:48.374Z,18.52
2018-04-24T18:05:22.968Z,18.40
2018-04-24T18:08:05.036Z,18.36
2018-04-24T18:10:40.139Z,18.23
2018-04-24T18:15:58.901Z,18.09
2018-04-24T18:18:32.770Z,17.95
2018-04-24T18:21:07.779Z,17.82
2018-04-24T18:23:41.503Z,17.68
2018-04-24T18:26:15.832Z,17.56
2018-04-24T18:28:56.357Z,17.47
2018-04-24T18:31:31.755Z,17.35
2018-04-24T18:34:05.618Z,17.25
2018-04-24T18:36:39.654Z,17.19
2018-04-24T18:39:13.556Z,17.02
2018-04-24T18:41:46.944Z,16.94
2018-04-24T18:44:21.507Z,16.74
2018-04-24T18:47:02.716Z,16.67
2018-04-24T18:52:45.080Z,16.46
2018-04-24T18:55:19.663Z,16.30
2018-04-24T18:57:57.623Z,16.32
2018-04-24T19:00:31.631Z,16.23
2018-04-24T19:03:05.748Z,16.17
2018-04-24T19:05:40.111Z,16.07
2018-04-24T19:08:13.508Z,15.94
2018-04-24T19:10:49.847Z,15.87
2018-04-24T19:13:23.363Z,15.80
2018-04-24T19:15:57.765Z,15.76
2018-04-24T19:18:36.096Z,15.57
2018-04-24T19:21:09.929Z,15.51
2018-04-24T19:23:43.580Z,15.48
2018-04-24T19:26:17.395Z,15.46
2018-04-24T19:28:50.964Z,15.40
2018-04-24T19:31:29.052Z,15.30
2018-04-24T19:34:03.313Z,15.20
2018-04-24T19:36:36.913Z,15.21
2018-04-24T19:39:14.989Z,15.27
2018-04-24T19:41:49.987Z,15.26
2018-04-24T19:46:58.737Z,15.32
2018-04-24T19:51:01.496Z,15.41
2018-04-24T19:53:35.304Z,15.33
2018-04-24T19:56:09.946Z,15.45
2018-04-24T19:58:43.322Z,15.46
2018-04-24T20:01:17.352Z,15.50
2018-04-24T20:03:50.674Z,15.55
2018-04-24T20:06:24.269Z,15.56
2018-04-24T20:09:00.996Z,15.54
2018-04-24T20:11:35.086Z,15.59
2018-04-24T20:14:08.791Z,15.51
2018-04-24T20:16:43.664Z,15.48
2018-04-24T20:19:17.652Z,15.51
2018-04-24T20:21:51.847Z,15.43
2018-04-24T20:24:26.681Z,15.41
2018-04-24T20:27:01.851Z,15.27
2018-04-24T20:29:35.558Z,15.16
2018-04-24T20:32:09.436Z,15.16
2018-04-24T20:34:43.050Z,15.10
2018-04-24T20:37:16.899Z,15.07
2018-04-24T20:39:50.304Z,15.04
2018-04-24T20:42:23.682Z,14.99
2018-04-24T20:44:57.559Z,14.90
2018-04-24T20:47:31.023Z,14.84
2018-04-24T20:50:04.622Z,14.78
2018-04-24T20:55:12.001Z,14.63
2018-04-24T20:57:45.540Z,14.60
2018-04-24T21:00:20.084Z,14.62
2018-04-24T21:02:54.550Z,14.55
2018-04-24T21:05:29.208Z,14.54
2018-04-24T21:08:03.067Z,14.50
2018-04-24T21:10:38.731Z,14.47
2018-04-24T21:13:14.724Z,14.45
2018-04-24T21:15:48.668Z,14.35
2018-04-24T21:18:23.570Z,14.27
2018-04-24T21:20:58.924Z,14.20
2018-04-24T21:23:36.110Z,14.10
2018-04-24T21:26:10.327Z,14.01
2018-04-24T21:28:44.549Z,14.00
2018-04-24T21:31:18.871Z,13.90
2018-04-24T21:33:52.614Z,13.92
2018-04-24T21:36:26.090Z,13.81
2018-04-24T21:38:59.154Z,13.79
2018-04-24T21:41:35.961Z,13.78
2018-04-24T21:44:09.367Z,13.76
2018-04-24T21:46:42.936Z,13.64
2018-04-24T21:49:17.737Z,13.62
2018-04-24T21:51:51.386Z,13.54
2018-04-24T21:54:25.455Z,13.45
2018-04-24T21:56:58.986Z,13.37
2018-04-24T21:59:32.415Z,13.32
2018-04-24T22:02:06.923Z,13.25
2018-04-24T22:07:13.323Z,13.24
2018-04-24T22:09:47.478Z,13.21
2018-04-24T22:12:22.525Z,13.17
2018-04-24T22:14:56.084Z,13.14
2018-04-24T22:17:30.047Z,13.03
2018-04-24T22:20:04.577Z,13.02
2018-04-24T22:22:38.177Z,13.01
2018-04-24T22:25:11.931Z,12.98
2018-04-24T22:27:45.887Z,12.94
2018-04-24T22:30:20.723Z,12.95
2018-04-24T22:32:54.348Z,12.98
2018-04-24T22:35:27.611Z,12.93
2018-04-24T22:38:01.128Z,12.84
2018-04-24T22:40:34.558Z,12.82
2018-04-24T22:43:08.503Z,12.71
2018-04-24T22:45:42.039Z,12.60
2018-04-24T22:48:15.583Z,12.59
2018-04-24T22:50:48.849Z,12.64
2018-04-24T22:53:22.477Z,12.61
2018-04-24T22:55:56.038Z,12.59
2018-04-24T22:58:29.637Z,12.59
2018-04-24T23:01:03.260Z,12.49
2018-04-24T23:03:36.706Z,12.47
2018-04-24T23:06:09.969Z,12.47
2018-04-24T23:08:43.825Z,12.50
2018-04-24T23:11:27.720Z,12.48
2018-04-24T23:14:18.897Z,12.36
2018-04-24T23:17:08.984Z,12.36
2018-04-24T23:20:00.445Z,12.38
2018-04-24T23:22:42.592Z,12.38
2018-04-24T23:25:16.261Z,12.34
2018-04-24T23:27:49.967Z,12.30
2018-04-24T23:30:23.250Z,12.28
2018-04-24T23:32:56.643Z,12.31
2018-04-24T23:35:30.047Z,12.31
2018-04-24T23:38:03.388Z,12.31
2018-04-24T23:40:37.543Z,12.37
2018-04-24T23:43:11.194Z,12.36
2018-04-24T23:45:44.558Z,12.36
2018-04-24T23:48:17.987Z,12.31
2018-04-24T23:50:53.517Z,12.25
2018-04-24T23:53:26.957Z,12.23
2018-04-24T23:56:00.349Z,12.21
2018-04-24T23:58:35.467Z,12.24
